Terminal Aerodrome Forecast
Issued by NWS

Home | Current Version | Previous Version | Graphics & Text | Print | Product List | Glossary On
Versions: 1 2 3 4 5 6 7 8 9 10 11 12 13 14 15 16 17 18 19 20 21 22 23 24 25 26 27 28 29 30 31 32 33 34 35 36
000
FTUS43 KLOT 141900 AAA
TAFORD
TAF AMD
KORD 141954Z 1420/1524 23009KT P6SM FEW045
     FM150100 22004KT P6SM SCT120 SCT250
     FM151500 26006KT P6SM -RA SCT040 BKN080 BKN120
     FM151900 31009KT 6SM -RA SCT010 BKN020 OVC035=

USA.gov is the U.S. government's official web portal to all federal, state and local government web resources and services.